createdAt,value
2023-02-16T00:00:39.598Z,1.35
2023-02-16T00:01:39.630Z,1.37
2023-02-16T00:02:39.624Z,1.37
2023-02-16T00:03:39.712Z,1.37
2023-02-16T00:04:39.553Z,1.40
2023-02-16T00:05:39.549Z,1.35
2023-02-16T00:06:39.546Z,1.32
2023-02-16T00:07:39.627Z,1.34
2023-02-16T00:08:39.515Z,1.37
2023-02-16T00:09:39.499Z,1.32
2023-02-16T00:10:39.524Z,1.38
2023-02-16T00:11:39.490Z,1.35
2023-02-16T00:12:39.508Z,1.41
2023-02-16T00:13:39.482Z,1.40
2023-02-16T00:14:39.463Z,1.37
2023-02-16T00:15:39.486Z,1.30
2023-02-16T00:16:39.432Z,1.34
2023-02-16T00:17:39.413Z,1.30
2023-02-16T00:18:39.404Z,1.40
2023-02-16T00:19:39.447Z,1.30
2023-02-16T00:20:39.381Z,1.31
2023-02-16T00:21:39.375Z,1.38
2023-02-16T00:22:39.354Z,1.38
2023-02-16T00:23:39.358Z,1.24
2023-02-16T00:24:39.361Z,1.38
2023-02-16T00:25:39.363Z,1.26
2023-02-16T00:26:39.318Z,1.26
2023-02-16T00:27:39.307Z,1.30
2023-02-16T00:28:39.300Z,1.31
2023-02-16T00:29:39.283Z,1.32
2023-02-16T00:30:39.284Z,1.31
2023-02-16T00:31:39.496Z,1.30
2023-02-16T00:32:39.257Z,1.26
2023-02-16T00:33:39.243Z,1.24
2023-02-16T00:34:39.236Z,1.31
2023-02-16T00:35:39.242Z,1.26
2023-02-16T00:36:39.205Z,1.28
2023-02-16T00:37:39.236Z,1.30
2023-02-16T00:38:39.185Z,1.35
2023-02-16T00:39:39.178Z,1.23
2023-02-16T00:40:39.176Z,1.23
2023-02-16T00:41:39.148Z,1.23
2023-02-16T00:42:39.145Z,1.23
2023-02-16T00:43:39.159Z,1.19
2023-02-16T00:44:39.125Z,1.20
2023-02-16T00:45:39.104Z,1.17
2023-02-16T00:46:39.094Z,1.17
2023-02-16T00:47:39.123Z,1.17
2023-02-16T00:48:39.074Z,1.12
2023-02-16T00:49:39.308Z,1.17
2023-02-16T00:50:39.051Z,1.22
2023-02-16T00:51:39.113Z,1.22
2023-02-16T00:52:39.055Z,1.14
2023-02-16T00:53:39.036Z,1.17
2023-02-16T00:54:39.011Z,1.19
2023-02-16T00:55:39.109Z,1.20
2023-02-16T00:56:38.991Z,1.22
2023-02-16T00:57:38.979Z,1.14
2023-02-16T00:58:38.971Z,1.12
2023-02-16T00:59:38.952Z,1.13
2023-02-16T01:00:38.950Z,1.14
2023-02-16T01:01:39.081Z,1.17
2023-02-16T01:02:38.926Z,1.22
2023-02-16T01:03:38.926Z,1.12
2023-02-16T01:04:38.931Z,1.10
2023-02-16T01:05:38.897Z,1.06
2023-02-16T01:06:38.886Z,1.20
2023-02-16T01:07:38.982Z,1.20
2023-02-16T01:08:38.856Z,1.17
2023-02-16T01:09:38.839Z,1.17
2023-02-16T01:10:38.839Z,1.20
2023-02-16T01:11:38.823Z,1.22
2023-02-16T01:12:38.806Z,1.17
2023-02-16T01:13:38.842Z,1.14
2023-02-16T01:14:38.794Z,1.16
2023-02-16T01:15:38.842Z,1.14
2023-02-16T01:16:38.769Z,1.19
2023-02-16T01:17:38.751Z,1.20
2023-02-16T01:18:38.742Z,1.16
2023-02-16T01:19:38.752Z,1.19
2023-02-16T01:20:38.727Z,1.17
2023-02-16T01:21:38.706Z,1.20
2023-02-16T01:22:38.708Z,1.13
2023-02-16T01:23:38.714Z,1.13
2023-02-16T01:24:38.681Z,1.16
2023-02-16T01:25:38.674Z,1.12
2023-02-16T01:26:38.657Z,1.13
2023-02-16T01:27:38.648Z,1.06
2023-02-16T01:28:38.632Z,1.14
2023-02-16T01:29:38.628Z,1.10
2023-02-16T01:30:38.627Z,1.08
2023-02-16T01:31:38.921Z,1.10
2023-02-16T01:32:38.589Z,1.08
2023-02-16T01:33:38.571Z,1.10
2023-02-16T01:34:38.568Z,1.05
2023-02-16T01:35:39.241Z,1.05
2023-02-16T01:36:38.551Z,1.12
2023-02-16T01:37:38.561Z,1.02
2023-02-16T01:38:38.528Z,1.12
2023-02-16T01:39:38.543Z,1.05
2023-02-16T01:40:38.492Z,1.16
2023-02-16T01:41:38.484Z,1.10
2023-02-16T01:42:38.482Z,1.10
2023-02-16T01:43:38.594Z,1.05
2023-02-16T01:44:38.476Z,1.06
2023-02-16T01:45:38.480Z,1.04
2023-02-16T01:46:38.514Z,1.10
2023-02-16T01:47:38.423Z,1.05
2023-02-16T01:48:38.426Z,1.08
2023-02-16T01:49:38.431Z,1.08
2023-02-16T01:50:38.429Z,1.01
2023-02-16T01:51:38.379Z,1.05
2023-02-16T01:52:38.367Z,1.17
2023-02-16T01:53:38.359Z,1.01
2023-02-16T01:54:38.343Z,1.05
2023-02-16T01:55:38.432Z,1.05
2023-02-16T01:56:38.338Z,1.14
2023-02-16T01:57:38.322Z,1.17
2023-02-16T01:58:38.471Z,1.12
2023-02-16T01:59:38.301Z,1.10
2023-02-16T02:00:38.292Z,1.12
2023-02-16T02:01:38.366Z,1.08
2023-02-16T02:02:38.325Z,1.12
2023-02-16T02:03:38.256Z,1.04
2023-02-16T02:04:38.244Z,1.06
2023-02-16T02:05:38.235Z,1.10
2023-02-16T02:06:38.292Z,1.08
2023-02-16T02:07:38.239Z,1.10
2023-02-16T02:08:38.208Z,1.22
2023-02-16T02:09:38.187Z,1.16
2023-02-16T02:10:38.175Z,1.04
2023-02-16T02:11:38.186Z,1.02
2023-02-16T02:12:38.148Z,1.06
2023-02-16T02:13:38.206Z,1.02
2023-02-16T02:14:38.129Z,1.04
2023-02-16T02:15:38.113Z,1.05
2023-02-16T02:16:38.099Z,1.04
2023-02-16T02:17:38.096Z,1.05
2023-02-16T02:18:38.072Z,1.05
2023-02-16T02:19:38.115Z,1.06
2023-02-16T02:20:38.137Z,1.13
2023-02-16T02:21:38.048Z,1.02
2023-02-16T02:22:38.041Z,1.05
2023-02-16T02:23:38.022Z,0.98
2023-02-16T02:24:38.021Z,1.05
2023-02-16T02:25:38.041Z,1.01
2023-02-16T02:26:37.989Z,0.96
2023-02-16T02:27:38.002Z,1.01
2023-02-16T02:28:37.971Z,0.98
2023-02-16T02:29:37.957Z,1.02
2023-02-16T02:30:37.951Z,0.96
2023-02-16T02:31:38.011Z,0.96
2023-02-16T02:32:37.934Z,0.87
2023-02-16T02:33:37.920Z,0.95
2023-02-16T02:34:37.912Z,0.94
2023-02-16T02:35:37.891Z,0.96
2023-02-16T02:36:37.881Z,0.91
2023-02-16T02:37:37.937Z,0.94
2023-02-16T02:38:37.884Z,0.88
2023-02-16T02:39:37.846Z,0.95
2023-02-16T02:40:37.840Z,0.91
2023-02-16T02:41:37.822Z,0.92
2023-02-16T02:42:37.825Z,0.83
2023-02-16T02:43:37.848Z,0.83
2023-02-16T02:44:37.820Z,0.86
2023-02-16T02:45:37.781Z,0.76
2023-02-16T02:46:37.788Z,0.77
2023-02-16T02:47:37.771Z,0.81
2023-02-16T02:48:37.764Z,0.84
2023-02-16T02:49:37.821Z,0.70
2023-02-16T02:50:37.729Z,0.80
2023-02-16T02:51:37.716Z,0.83
2023-02-16T02:52:37.765Z,0.77
2023-02-16T02:53:37.697Z,0.74
2023-02-16T02:54:37.685Z,0.81
2023-02-16T02:55:37.698Z,0.84
2023-02-16T02:56:37.665Z,0.78
2023-02-16T02:57:37.659Z,0.80
2023-02-16T02:58:37.638Z,0.84
2023-02-16T02:59:37.693Z,0.74
2023-02-16T03:00:37.633Z,0.68
2023-02-16T03:01:37.665Z,0.80
2023-02-16T03:02:37.600Z,0.73
2023-02-16T03:03:37.582Z,0.78
2023-02-16T03:04:37.584Z,0.70
2023-02-16T03:05:37.571Z,0.78
2023-02-16T03:06:37.577Z,0.68
2023-02-16T03:07:37.586Z,0.69
2023-02-16T03:08:37.531Z,0.70
2023-02-16T03:09:37.535Z,0.70
2023-02-16T03:10:37.510Z,0.65
2023-02-16T03:11:37.502Z,0.69
2023-02-16T03:12:37.486Z,0.70
2023-02-16T03:13:37.496Z,0.69
2023-02-16T03:14:37.498Z,0.69
2023-02-16T03:15:37.491Z,0.69
2023-02-16T03:16:37.493Z,0.63
2023-02-16T03:17:37.438Z,0.68
2023-02-16T03:18:37.430Z,0.63
2023-02-16T03:19:37.461Z,0.66
2023-02-16T03:20:37.403Z,0.59
2023-02-16T03:21:37.391Z,0.70
2023-02-16T03:22:37.376Z,0.50
2023-02-16T03:23:37.369Z,0.65
2023-02-16T03:24:37.354Z,0.49
2023-02-16T03:25:37.429Z,0.63
2023-02-16T03:26:37.341Z,0.56
2023-02-16T03:27:37.318Z,0.59
2023-02-16T03:28:37.311Z,0.65
2023-02-16T03:29:37.298Z,0.63
2023-02-16T03:30:37.467Z,0.58
2023-02-16T03:31:37.591Z,0.58
2023-02-16T03:32:37.264Z,0.60
2023-02-16T03:33:37.260Z,0.62
2023-02-16T03:34:37.244Z,0.55
2023-02-16T03:35:37.225Z,0.46
2023-02-16T03:36:37.221Z,0.49
2023-02-16T03:37:37.248Z,0.46
2023-02-16T03:38:37.194Z,0.56
2023-02-16T03:39:37.203Z,0.56
2023-02-16T03:40:37.178Z,0.59
2023-02-16T03:41:37.167Z,0.65
2023-02-16T03:42:37.155Z,0.52
2023-02-16T03:43:37.206Z,0.62
2023-02-16T03:44:37.140Z,0.55
2023-02-16T03:45:37.186Z,0.58
2023-02-16T03:46:37.107Z,0.50
2023-02-16T03:47:37.133Z,0.50
2023-02-16T03:48:37.084Z,0.50
2023-02-16T03:49:37.097Z,0.55
2023-02-16T03:50:37.086Z,0.55
2023-02-16T03:51:37.055Z,0.56
2023-02-16T03:52:37.151Z,0.46
2023-02-16T03:53:37.033Z,0.59
2023-02-16T03:54:37.025Z,0.52
2023-02-16T03:55:37.021Z,0.46
2023-02-16T03:56:36.999Z,0.49
2023-02-16T03:57:36.997Z,0.44
2023-02-16T03:58:36.977Z,0.58
2023-02-16T03:59:36.975Z,0.50
2023-02-16T04:00:36.992Z,0.46
2023-02-16T04:01:36.989Z,0.55
2023-02-16T04:02:36.936Z,0.52
2023-02-16T04:03:36.954Z,0.52
2023-02-16T04:04:36.934Z,0.47
2023-02-16T04:05:36.911Z,0.56
2023-02-16T04:06:36.899Z,0.56
2023-02-16T04:07:36.918Z,0.41
2023-02-16T04:08:36.882Z,0.56
2023-02-16T04:09:36.864Z,0.50
2023-02-16T04:10:36.854Z,0.52
2023-02-16T04:11:36.846Z,0.50
2023-02-16T04:12:36.844Z,0.44
2023-02-16T04:13:36.834Z,0.50
2023-02-16T04:14:36.809Z,0.50
2023-02-16T04:15:36.796Z,0.59
2023-02-16T04:16:36.846Z,0.59
2023-02-16T04:17:36.781Z,0.47
2023-02-16T04:18:36.787Z,0.47
2023-02-16T04:19:36.816Z,0.47
2023-02-16T04:20:36.760Z,0.55
2023-02-16T04:21:36.727Z,0.58
2023-02-16T04:22:36.742Z,0.49
2023-02-16T04:23:36.714Z,0.55
2023-02-16T04:24:36.704Z,0.52
2023-02-16T04:25:36.810Z,0.55
2023-02-16T04:26:36.675Z,0.47
2023-02-16T04:27:36.664Z,0.44
2023-02-16T04:28:36.662Z,0.49
2023-02-16T04:29:36.640Z,0.44
2023-02-16T04:30:36.853Z,0.47
2023-02-16T04:31:36.747Z,0.44
2023-02-16T04:32:36.636Z,0.44
2023-02-16T04:33:36.603Z,0.56
2023-02-16T04:34:36.585Z,0.43
2023-02-16T04:35:36.600Z,0.52
2023-02-16T04:36:36.571Z,0.58
2023-02-16T04:37:36.650Z,0.50
2023-02-16T04:38:36.549Z,0.52
2023-02-16T04:39:36.532Z,0.55
2023-02-16T04:40:36.560Z,0.49
2023-02-16T04:41:36.513Z,0.55
2023-02-16T04:42:36.493Z,0.49
2023-02-16T04:43:36.514Z,0.56
2023-02-16T04:44:36.475Z,0.56
2023-02-16T04:45:36.475Z,0.44
2023-02-16T04:46:36.458Z,0.56
2023-02-16T04:47:36.441Z,0.47
2023-02-16T04:48:36.435Z,0.47
2023-02-16T04:49:36.469Z,0.50
2023-02-16T04:50:36.423Z,0.44
2023-02-16T04:51:36.429Z,0.56
2023-02-16T04:52:36.386Z,0.44
2023-02-16T04:53:36.419Z,0.40
2023-02-16T04:54:36.366Z,0.49
2023-02-16T04:55:36.384Z,0.37
2023-02-16T04:56:36.343Z,0.44
2023-02-16T04:57:36.336Z,0.43
2023-02-16T04:58:36.325Z,0.40
2023-02-16T04:59:36.318Z,0.41
2023-02-16T05:00:36.712Z,0.34
2023-02-16T05:01:36.377Z,0.36
2023-02-16T05:02:36.307Z,0.32
2023-02-16T05:03:36.269Z,0.39
2023-02-16T05:04:36.336Z,0.43
2023-02-16T05:05:36.245Z,0.44
2023-02-16T05:06:36.236Z,0.34
2023-02-16T05:07:36.324Z,0.46
2023-02-16T05:08:36.212Z,0.41
2023-02-16T05:09:36.258Z,0.44
2023-02-16T05:10:36.201Z,0.52
2023-02-16T05:11:36.189Z,0.41
2023-02-16T05:12:36.181Z,0.44
2023-02-16T05:13:36.192Z,0.39
2023-02-16T05:14:36.149Z,0.50
2023-02-16T05:15:36.170Z,0.40
2023-02-16T05:16:36.146Z,0.43
2023-02-16T05:17:36.119Z,0.44
2023-02-16T05:18:36.105Z,0.44
2023-02-16T05:19:36.121Z,0.40
2023-02-16T05:20:36.084Z,0.39
2023-02-16T05:21:36.075Z,0.50
2023-02-16T05:22:36.073Z,0.32
2023-02-16T05:23:36.075Z,0.43
2023-02-16T05:24:36.043Z,0.40
2023-02-16T05:25:36.072Z,0.39
2023-02-16T05:26:36.020Z,0.29
2023-02-16T05:27:36.000Z,0.29
2023-02-16T05:28:36.194Z,0.36
2023-02-16T05:29:36.006Z,0.37
2023-02-16T05:30:35.986Z,0.43
2023-02-16T05:31:36.108Z,0.47
2023-02-16T05:32:35.962Z,0.28
2023-02-16T05:33:35.945Z,0.46
2023-02-16T05:34:35.925Z,0.34
2023-02-16T05:35:35.927Z,0.41
2023-02-16T05:36:35.911Z,0.36
2023-02-16T05:37:35.965Z,0.43
2023-02-16T05:38:35.894Z,0.36
2023-02-16T05:39:35.950Z,0.47
2023-02-16T05:40:35.868Z,0.37
2023-02-16T05:41:35.878Z,0.52
2023-02-16T05:42:35.839Z,0.55
2023-02-16T05:43:35.885Z,0.49
2023-02-16T05:44:35.823Z,0.43
2023-02-16T05:45:35.817Z,0.49
2023-02-16T05:46:35.906Z,0.52
2023-02-16T05:47:35.820Z,0.55
2023-02-16T05:48:35.787Z,0.46
2023-02-16T05:49:35.826Z,0.47
2023-02-16T05:50:35.760Z,0.49
2023-02-16T05:51:35.754Z,0.55
2023-02-16T05:52:35.741Z,0.58
2023-02-16T05:53:35.738Z,0.46
2023-02-16T05:54:35.735Z,0.47
2023-02-16T05:55:35.819Z,0.56
2023-02-16T05:56:35.696Z,0.60
2023-02-16T05:57:35.765Z,0.58
2023-02-16T05:58:35.679Z,0.68
2023-02-16T05:59:35.673Z,0.55
2023-02-16T06:00:35.657Z,0.59
2023-02-16T06:01:35.666Z,0.56
2023-02-16T06:02:35.709Z,0.56
2023-02-16T06:03:35.670Z,0.59
2023-02-16T06:04:35.608Z,0.58
2023-02-16T06:05:35.624Z,0.60
2023-02-16T06:06:35.591Z,0.59
2023-02-16T06:07:35.642Z,0.68
2023-02-16T06:08:35.571Z,0.66
2023-02-16T06:09:35.553Z,0.74
2023-02-16T06:10:35.553Z,0.65
2023-02-16T06:11:35.566Z,0.68
2023-02-16T06:12:35.521Z,0.65
2023-02-16T06:13:35.549Z,0.70
2023-02-16T06:14:35.504Z,0.78
2023-02-16T06:15:35.493Z,0.80
2023-02-16T06:16:35.483Z,0.81
2023-02-16T06:17:35.474Z,0.83
2023-02-16T06:18:35.464Z,0.86
2023-02-16T06:19:35.465Z,0.88
2023-02-16T06:20:35.444Z,0.94
2023-02-16T06:21:35.436Z,0.91
2023-02-16T06:22:35.484Z,0.92
2023-02-16T06:23:35.405Z,0.99
2023-02-16T06:24:35.412Z,1.05
2023-02-16T06:25:35.429Z,1.05
2023-02-16T06:26:35.503Z,1.06
2023-02-16T06:27:35.442Z,1.06
2023-02-16T06:28:35.361Z,1.17
2023-02-16T06:29:35.351Z,1.22
2023-02-16T06:30:35.419Z,1.22
2023-02-16T06:31:36.799Z,1.22
2023-02-16T06:32:35.334Z,1.31
2023-02-16T06:33:35.290Z,1.35
2023-02-16T06:34:35.287Z,1.42
2023-02-16T06:35:35.270Z,1.50
2023-02-16T06:36:35.256Z,1.50
2023-02-16T06:37:35.277Z,1.58
2023-02-16T06:38:35.244Z,1.58
2023-02-16T06:39:35.236Z,1.58
2023-02-16T06:40:35.212Z,1.62
2023-02-16T06:41:35.206Z,1.62
2023-02-16T06:42:35.219Z,1.59
2023-02-16T06:43:35.238Z,1.59
2023-02-16T06:44:35.221Z,1.66
2023-02-16T06:45:35.795Z,1.68
2023-02-16T06:46:35.961Z,1.67
2023-02-16T06:47:35.265Z,1.77
2023-02-16T06:48:35.140Z,1.76
2023-02-16T06:49:35.147Z,1.78
2023-02-16T06:50:35.117Z,1.80
2023-02-16T06:51:35.118Z,1.85
2023-02-16T06:52:35.082Z,1.87
2023-02-16T06:53:35.888Z,1.88
2023-02-16T06:54:35.072Z,1.87
2023-02-16T06:55:35.345Z,1.95
2023-02-16T06:56:37.670Z,1.92
2023-02-16T06:57:35.051Z,1.91
2023-02-16T06:58:35.038Z,1.84
2023-02-16T06:59:35.051Z,2.00
2023-02-16T07:00:35.074Z,2.07
2023-02-16T07:01:35.015Z,1.95
2023-02-16T07:02:34.975Z,2.14
2023-02-16T07:03:35.043Z,2.17
2023-02-16T07:04:36.920Z,2.13
2023-02-16T07:05:34.945Z,2.18
2023-02-16T07:06:37.277Z,2.22
2023-02-16T07:07:34.949Z,2.31
2023-02-16T07:08:35.838Z,2.33
2023-02-16T07:09:41.890Z,2.36
2023-02-16T07:10:48.959Z,2.47
2023-02-16T07:11:35.866Z,2.44
2023-02-16T07:12:41.929Z,2.60
2023-02-16T07:13:34.849Z,2.56
2023-02-16T07:14:34.863Z,2.69
2023-02-16T07:15:34.846Z,2.83
2023-02-16T07:16:35.429Z,2.87
2023-02-16T07:17:34.805Z,2.90
2023-02-16T07:18:34.811Z,3.01
2023-02-16T07:19:34.794Z,3.07
2023-02-16T07:20:34.784Z,3.10
2023-02-16T07:21:35.410Z,3.14
2023-02-16T07:22:35.393Z,3.29
2023-02-16T07:23:34.764Z,3.32
2023-02-16T07:24:34.749Z,3.37
2023-02-16T07:25:37.090Z,3.45
2023-02-16T07:26:34.741Z,3.53
2023-02-16T07:27:34.701Z,3.69
2023-02-16T07:28:34.685Z,3.73
2023-02-16T07:29:34.700Z,3.83
2023-02-16T07:30:34.871Z,3.95
2023-02-16T07:31:34.865Z,4.06
2023-02-16T07:32:34.634Z,4.26
2023-02-16T07:33:34.873Z,4.35
2023-02-16T07:34:34.629Z,4.52
2023-02-16T07:35:34.599Z,4.68
2023-02-16T07:36:34.627Z,4.78
2023-02-16T07:37:34.584Z,4.93
2023-02-16T07:38:34.575Z,5.05
2023-02-16T07:39:34.564Z,5.14
2023-02-16T07:40:34.550Z,5.29
2023-02-16T07:41:35.399Z,5.50
2023-02-16T07:42:34.563Z,5.57
2023-02-16T07:43:34.506Z,5.65
2023-02-16T07:44:34.514Z,5.68
2023-02-16T07:45:34.553Z,5.71
2023-02-16T07:46:34.481Z,5.83
2023-02-16T07:47:34.490Z,5.86
2023-02-16T07:48:34.486Z,5.99
2023-02-16T07:49:34.442Z,5.98
2023-02-16T07:50:34.432Z,6.19
2023-02-16T07:51:34.419Z,6.20
2023-02-16T07:52:34.424Z,6.36
2023-02-16T07:53:34.395Z,6.39
2023-02-16T07:54:34.418Z,6.44
2023-02-16T07:55:34.378Z,6.60
2023-02-16T07:56:34.405Z,6.75
2023-02-16T07:57:34.568Z,6.84
2023-02-16T07:58:34.383Z,6.88
2023-02-16T07:59:34.375Z,7.00
2023-02-16T08:00:34.357Z,7.03
2023-02-16T08:01:34.895Z,7.13
2023-02-16T08:02:34.381Z,7.21
2023-02-16T08:03:34.932Z,7.31
2023-02-16T08:04:34.270Z,7.43
2023-02-16T08:05:34.270Z,7.47
2023-02-16T08:06:34.275Z,7.54
2023-02-16T08:07:34.247Z,7.69
2023-02-16T08:08:34.232Z,7.67
2023-02-16T08:09:34.895Z,7.79
2023-02-16T08:10:34.208Z,7.87
2023-02-16T08:11:34.193Z,7.90
2023-02-16T08:12:34.236Z,7.90
2023-02-16T08:13:41.170Z,7.90
2023-02-16T08:14:34.163Z,7.95
2023-02-16T08:15:34.159Z,7.97
2023-02-16T08:16:34.227Z,8.05
2023-02-16T08:17:36.985Z,8.18
2023-02-16T08:18:34.193Z,8.15
2023-02-16T08:19:34.135Z,8.26
2023-02-16T08:20:53.918Z,8.33
2023-02-16T08:21:35.087Z,8.33
2023-02-16T08:22:34.080Z,8.42
2023-02-16T08:23:34.063Z,8.37
2023-02-16T08:24:34.268Z,8.49
2023-02-16T08:25:34.045Z,8.44
2023-02-16T08:26:34.108Z,8.53
2023-02-16T08:27:34.023Z,8.64
2023-02-16T08:28:34.011Z,8.66
2023-02-16T08:29:34.000Z,8.63
2023-02-16T08:30:34.080Z,8.71
2023-02-16T08:31:34.096Z,8.67
2023-02-16T08:32:33.966Z,8.63
2023-02-16T08:33:33.968Z,8.66
2023-02-16T08:34:33.946Z,8.71
2023-02-16T08:35:33.961Z,8.67
2023-02-16T08:36:33.964Z,8.63
2023-02-16T08:37:33.914Z,8.64
2023-02-16T08:38:34.905Z,8.64
2023-02-16T08:39:34.457Z,8.66
2023-02-16T08:40:34.457Z,8.76
2023-02-16T08:41:33.872Z,8.73
2023-02-16T08:42:34.024Z,8.81
2023-02-16T08:43:34.849Z,8.78
2023-02-16T08:44:34.691Z,8.84
2023-02-16T08:45:34.523Z,8.85
2023-02-16T08:46:33.812Z,8.85
2023-02-16T08:47:33.801Z,8.99
2023-02-16T08:48:33.996Z,8.88
2023-02-16T08:49:33.845Z,9.02
2023-02-16T08:50:33.782Z,9.11
2023-02-16T08:51:33.776Z,9.10
2023-02-16T08:52:36.468Z,9.08
2023-02-16T08:53:33.736Z,9.14
2023-02-16T08:54:33.750Z,9.08
2023-02-16T08:55:33.711Z,9.21
2023-02-16T08:56:33.691Z,9.16
2023-02-16T08:57:33.690Z,9.21
2023-02-16T08:58:33.688Z,9.13
2023-02-16T08:59:34.466Z,9.10
2023-02-16T09:00:33.688Z,9.23
2023-02-16T09:01:33.750Z,9.25
2023-02-16T09:02:33.889Z,9.18
2023-02-16T09:03:33.620Z,9.21
2023-02-16T09:04:33.616Z,9.22
2023-02-16T09:05:33.626Z,9.21
2023-02-16T09:06:33.614Z,9.21
2023-02-16T09:07:34.478Z,9.29
2023-02-16T09:08:33.591Z,9.32
2023-02-16T09:09:33.547Z,9.34
2023-02-16T09:10:33.543Z,9.37
2023-02-16T09:11:33.547Z,9.37
2023-02-16T09:12:34.070Z,9.44
2023-02-16T09:13:34.499Z,9.48
2023-02-16T09:14:33.492Z,9.40
2023-02-16T09:15:35.251Z,9.44
2023-02-16T09:16:33.577Z,9.55
2023-02-16T09:17:33.482Z,9.66
2023-02-16T09:18:33.476Z,9.68
2023-02-16T09:19:33.442Z,9.59
2023-02-16T09:20:33.951Z,9.74
2023-02-16T09:21:33.415Z,9.72
2023-02-16T09:22:33.410Z,9.72
2023-02-16T09:23:33.433Z,9.77
2023-02-16T09:24:33.498Z,9.87
2023-02-16T09:25:33.420Z,9.91
2023-02-16T09:26:33.382Z,9.86
2023-02-16T09:27:33.957Z,9.99
2023-02-16T09:28:33.336Z,10.01
2023-02-16T09:29:33.320Z,10.07
2023-02-16T09:30:33.437Z,10.13
2023-02-16T09:31:34.195Z,10.15
2023-02-16T09:32:33.295Z,10.09
2023-02-16T09:33:33.275Z,10.28
2023-02-16T09:34:33.968Z,10.19
2023-02-16T09:35:33.283Z,10.31
2023-02-16T09:36:33.636Z,10.34
2023-02-16T09:37:33.965Z,10.34
2023-02-16T09:38:33.217Z,10.33
2023-02-16T09:39:33.227Z,10.44
2023-02-16T09:40:34.076Z,10.41
2023-02-16T09:41:33.188Z,10.51
2023-02-16T09:42:33.497Z,10.48
2023-02-16T09:43:33.180Z,10.57
2023-02-16T09:44:33.162Z,10.56
2023-02-16T09:45:33.137Z,10.54
2023-02-16T09:46:33.356Z,10.54
2023-02-16T09:47:33.144Z,10.64
2023-02-16T09:48:33.166Z,10.68
2023-02-16T09:49:33.966Z,10.71
2023-02-16T09:50:52.499Z,10.64
2023-02-16T09:51:34.970Z,10.72
2023-02-16T09:52:33.063Z,10.69
2023-02-16T09:53:33.962Z,10.74
2023-02-16T09:54:33.115Z,10.75
2023-02-16T09:55:33.063Z,10.75
2023-02-16T09:56:33.069Z,10.74
2023-02-16T09:57:33.011Z,10.84
2023-02-16T09:58:33.010Z,10.79
2023-02-16T09:59:32.998Z,10.78
2023-02-16T10:00:33.055Z,10.79
2023-02-16T10:01:33.013Z,10.87
2023-02-16T10:02:33.031Z,10.81
2023-02-16T10:03:32.954Z,10.87
2023-02-16T10:04:33.465Z,10.89
2023-02-16T10:05:33.468Z,10.93
2023-02-16T10:06:32.945Z,11.05
2023-02-16T10:07:32.901Z,11.02
2023-02-16T10:08:32.898Z,10.96
2023-02-16T10:09:32.879Z,10.99
2023-02-16T10:10:32.872Z,11.00
2023-02-16T10:11:32.880Z,10.94
2023-02-16T10:12:32.887Z,10.93
2023-02-16T10:13:32.850Z,10.79
2023-02-16T10:14:32.819Z,10.87
2023-02-16T10:15:32.884Z,10.89
2023-02-16T10:16:32.802Z,10.82
2023-02-16T10:17:32.791Z,10.81
2023-02-16T10:18:32.975Z,10.86
2023-02-16T10:19:32.765Z,10.96
2023-02-16T10:20:32.810Z,10.94
2023-02-16T10:21:32.744Z,10.93
2023-02-16T10:22:32.783Z,11.02
2023-02-16T10:23:32.722Z,11.00
2023-02-16T10:24:32.720Z,11.00
2023-02-16T10:25:32.813Z,11.05
2023-02-16T10:26:32.769Z,11.07
2023-02-16T10:27:32.712Z,11.05
2023-02-16T10:28:32.734Z,11.00
2023-02-16T10:29:32.650Z,11.08
2023-02-16T10:30:32.787Z,11.05
2023-02-16T10:31:32.800Z,11.05
2023-02-16T10:32:33.977Z,11.07
2023-02-16T10:33:32.616Z,11.14
2023-02-16T10:34:32.603Z,11.02
2023-02-16T10:35:32.598Z,11.02
2023-02-16T10:36:32.592Z,11.15
2023-02-16T10:37:32.564Z,11.10
2023-02-16T10:38:32.562Z,11.11
2023-02-16T10:39:32.586Z,11.05
2023-02-16T10:40:33.485Z,10.96
2023-02-16T10:41:32.729Z,11.02
2023-02-16T10:42:32.554Z,10.99
2023-02-16T10:43:32.548Z,10.89
2023-02-16T10:44:32.499Z,10.93
2023-02-16T10:45:32.482Z,10.89
2023-02-16T10:46:32.557Z,10.92
2023-02-16T10:47:32.466Z,10.97
2023-02-16T10:48:34.539Z,10.90
2023-02-16T10:49:32.441Z,10.87
2023-02-16T10:50:32.426Z,10.86
2023-02-16T10:51:32.418Z,10.92
2023-02-16T10:52:32.409Z,10.87
2023-02-16T10:53:32.397Z,10.82
2023-02-16T10:54:32.424Z,10.89
2023-02-16T10:55:32.375Z,10.89
2023-02-16T10:56:32.383Z,10.81
2023-02-16T10:57:32.351Z,10.81
2023-02-16T10:58:32.345Z,10.87
2023-02-16T10:59:33.010Z,10.89
2023-02-16T11:00:32.559Z,10.93
2023-02-16T11:01:32.408Z,11.04
2023-02-16T11:02:32.382Z,10.89
2023-02-16T11:03:32.287Z,10.90
2023-02-16T11:04:32.379Z,10.90
2023-02-16T11:05:32.305Z,10.99
2023-02-16T11:06:39.584Z,10.94
2023-02-16T11:07:32.303Z,11.00
2023-02-16T11:08:32.229Z,11.11
2023-02-16T11:09:32.221Z,11.08
2023-02-16T11:10:32.211Z,11.05
2023-02-16T11:11:32.198Z,11.07
2023-02-16T11:12:32.226Z,11.19
2023-02-16T11:13:32.186Z,11.10
2023-02-16T11:14:32.169Z,10.99
2023-02-16T11:15:32.253Z,11.11
2023-02-16T11:16:32.182Z,11.02
2023-02-16T11:17:32.125Z,10.97
2023-02-16T11:18:32.166Z,11.00
2023-02-16T11:19:32.106Z,11.04
2023-02-16T11:20:32.106Z,10.84
2023-02-16T11:21:32.083Z,10.78
2023-02-16T11:22:32.080Z,10.81
2023-02-16T11:23:32.163Z,10.82
2023-02-16T11:24:32.151Z,10.76
2023-02-16T11:25:32.043Z,10.78
2023-02-16T11:26:32.027Z,10.78
2023-02-16T11:27:32.105Z,10.71
2023-02-16T11:28:32.868Z,10.64
2023-02-16T11:29:31.998Z,10.59
2023-02-16T11:30:32.050Z,10.44
2023-02-16T11:31:32.103Z,10.44
2023-02-16T11:32:32.603Z,10.57
2023-02-16T11:33:31.957Z,10.44
2023-02-16T11:34:31.948Z,10.44
2023-02-16T11:35:32.539Z,10.48
2023-02-16T11:36:32.199Z,10.48
2023-02-16T11:37:31.927Z,10.38
2023-02-16T11:38:31.913Z,10.37
2023-02-16T11:39:31.900Z,10.48
2023-02-16T11:40:31.879Z,10.53
2023-02-16T11:41:31.863Z,10.40
2023-02-16T11:42:32.117Z,10.44
2023-02-16T11:43:31.832Z,10.37
2023-02-16T11:44:32.531Z,10.40
2023-02-16T11:45:31.893Z,10.51
2023-02-16T11:46:31.942Z,10.59
2023-02-16T11:47:31.810Z,10.44
2023-02-16T11:48:31.820Z,10.44
2023-02-16T11:49:31.783Z,10.49
2023-02-16T11:50:31.774Z,10.49
2023-02-16T11:51:31.740Z,10.56
2023-02-16T11:52:31.757Z,10.63
2023-02-16T11:53:31.715Z,10.74
2023-02-16T11:54:31.745Z,10.76
2023-02-16T11:55:31.695Z,10.81
2023-02-16T11:56:31.873Z,10.90
2023-02-16T11:57:31.752Z,10.97
2023-02-16T11:58:31.695Z,10.92
2023-02-16T11:59:31.676Z,10.87
2023-02-16T12:00:31.717Z,10.94
2023-02-16T12:01:31.638Z,10.97
2023-02-16T12:02:31.647Z,11.02
2023-02-16T12:03:31.776Z,11.11
2023-02-16T12:04:31.590Z,11.11
2023-02-16T12:05:31.694Z,11.18
2023-02-16T12:06:31.834Z,11.22
2023-02-16T12:07:31.564Z,11.14
2023-02-16T12:08:31.620Z,11.14
2023-02-16T12:09:31.614Z,11.19
2023-02-16T12:10:31.533Z,11.19
2023-02-16T12:11:31.526Z,11.07
2023-02-16T12:12:31.541Z,11.07
2023-02-16T12:13:31.504Z,11.07
2023-02-16T12:14:31.487Z,11.04
2023-02-16T12:15:31.528Z,10.81
2023-02-16T12:16:31.514Z,10.93
2023-02-16T12:17:31.532Z,10.86
2023-02-16T12:18:31.494Z,10.81
2023-02-16T12:19:32.078Z,10.71
2023-02-16T12:20:31.435Z,10.57
2023-02-16T12:21:31.404Z,10.56
2023-02-16T12:22:32.039Z,10.51
2023-02-16T12:23:31.412Z,10.54
2023-02-16T12:24:31.585Z,10.51
2023-02-16T12:25:31.420Z,10.44
2023-02-16T12:26:31.402Z,10.59
2023-02-16T12:27:31.340Z,10.46
2023-02-16T12:28:31.469Z,10.44
2023-02-16T12:29:31.313Z,10.54
2023-02-16T12:30:31.392Z,10.49
2023-02-16T12:31:31.318Z,10.41
2023-02-16T12:32:31.280Z,10.42
2023-02-16T12:33:31.292Z,10.49
2023-02-16T12:34:32.045Z,10.53
2023-02-16T12:35:31.271Z,10.41
2023-02-16T12:36:31.294Z,10.44
2023-02-16T12:37:31.242Z,10.46
2023-02-16T12:38:31.210Z,10.53
2023-02-16T12:39:31.280Z,10.40
2023-02-16T12:40:32.056Z,10.37
2023-02-16T12:41:31.198Z,10.30
2023-02-16T12:42:31.239Z,10.30
2023-02-16T12:43:31.176Z,10.34
2023-02-16T12:44:31.217Z,10.40
2023-02-16T12:45:31.132Z,10.33
2023-02-16T12:46:31.119Z,10.56
2023-02-16T12:47:32.042Z,10.53
2023-02-16T12:48:31.109Z,10.40
2023-02-16T12:49:32.037Z,10.48
2023-02-16T12:50:31.092Z,10.41
2023-02-16T12:51:31.092Z,10.48
2023-02-16T12:52:31.046Z,10.40
2023-02-16T12:53:31.049Z,10.53
2023-02-16T12:54:31.162Z,10.48
2023-02-16T12:55:31.016Z,10.35
2023-02-16T12:56:31.000Z,10.41
2023-02-16T12:57:31.604Z,10.46
2023-02-16T12:58:30.995Z,10.44
2023-02-16T12:59:30.965Z,10.46
2023-02-16T13:00:31.082Z,10.51
2023-02-16T13:01:30.998Z,10.44
2023-02-16T13:02:30.945Z,10.44
2023-02-16T13:03:30.991Z,10.37
2023-02-16T13:04:30.945Z,10.34
2023-02-16T13:05:30.906Z,10.37
2023-02-16T13:06:30.937Z,10.35
2023-02-16T13:07:30.911Z,10.28
2023-02-16T13:08:30.883Z,10.26
2023-02-16T13:09:30.863Z,10.22
2023-02-16T13:10:30.859Z,10.28
2023-02-16T13:11:30.903Z,10.19